sensor_id;sensor_type;location;lat;lon;timestamp;P1;durP1;ratioP1;P2;durP2;ratioP2
73841;SDS011;62184;52.006;5.924;2023-04-15T00:01:50;10.73;;;8.30;;
73841;SDS011;62184;52.006;5.924;2023-04-15T00:04:16;9.93;;;8.07;;
73841;SDS011;62184;52.006;5.924;2023-04-15T00:06:51;11.07;;;7.57;;
73841;SDS011;62184;52.006;5.924;2023-04-15T00:09:18;10.57;;;8.10;;
73841;SDS011;62184;52.006;5.924;2023-04-15T00:11:44;12.07;;;8.10;;
73841;SDS011;62184;52.006;5.924;2023-04-15T00:14:11;12.00;;;8.32;;
73841;SDS011;62184;52.006;5.924;2023-04-15T00:16:38;11.13;;;8.40;;
73841;SDS011;62184;52.006;5.924;2023-04-15T00:19:04;10.10;;;7.90;;
73841;SDS011;62184;52.006;5.924;2023-04-15T00:21:31;11.23;;;8.30;;
73841;SDS011;62184;52.006;5.924;2023-04-15T00:24:00;9.80;;;7.97;;
73841;SDS011;62184;52.006;5.924;2023-04-15T00:26:27;10.38;;;8.30;;
73841;SDS011;62184;52.006;5.924;2023-04-15T00:28:53;11.40;;;8.30;;
73841;SDS011;62184;52.006;5.924;2023-04-15T00:31:19;11.55;;;8.60;;
73841;SDS011;62184;52.006;5.924;2023-04-15T00:33:46;11.65;;;8.05;;
73841;SDS011;62184;52.006;5.924;2023-04-15T00:36:12;11.23;;;8.20;;
73841;SDS011;62184;52.006;5.924;2023-04-15T00:38:39;10.70;;;8.20;;
73841;SDS011;62184;52.006;5.924;2023-04-15T00:41:08;11.63;;;8.10;;
73841;SDS011;62184;52.006;5.924;2023-04-15T00:43:35;12.07;;;7.90;;
73841;SDS011;62184;52.006;5.924;2023-04-15T00:46:03;10.77;;;8.30;;
73841;SDS011;62184;52.006;5.924;2023-04-15T00:48:30;11.77;;;8.40;;
73841;SDS011;62184;52.006;5.924;2023-04-15T00:50:57;11.32;;;8.15;;
73841;SDS011;62184;52.006;5.924;2023-04-15T00:53:24;11.52;;;8.43;;
73841;SDS011;62184;52.006;5.924;2023-04-15T00:55:50;11.25;;;8.55;;
73841;SDS011;62184;52.006;5.924;2023-04-15T00:58:19;11.20;;;8.00;;
73841;SDS011;62184;52.006;5.924;2023-04-15T01:00:46;11.20;;;8.05;;
73841;SDS011;62184;52.006;5.924;2023-04-15T01:03:12;11.57;;;8.13;;
73841;SDS011;62184;52.006;5.924;2023-04-15T01:05:39;12.77;;;8.37;;
73841;SDS011;62184;52.006;5.924;2023-04-15T01:08:05;10.63;;;8.60;;
73841;SDS011;62184;52.006;5.924;2023-04-15T01:10:32;11.13;;;8.03;;
73841;SDS011;62184;52.006;5.924;2023-04-15T01:12:58;12.00;;;8.30;;
73841;SDS011;62184;52.006;5.924;2023-04-15T01:15:27;11.48;;;8.38;;
73841;SDS011;62184;52.006;5.924;2023-04-15T01:17:55;11.73;;;7.82;;
73841;SDS011;62184;52.006;5.924;2023-04-15T01:20:23;10.77;;;8.07;;
73841;SDS011;62184;52.006;5.924;2023-04-15T01:22:49;10.63;;;7.82;;
73841;SDS011;62184;52.006;5.924;2023-04-15T01:25:17;11.20;;;8.00;;
73841;SDS011;62184;52.006;5.924;2023-04-15T01:27:48;12.40;;;7.95;;
73841;SDS011;62184;52.006;5.924;2023-04-15T01:30:14;11.10;;;7.78;;
73841;SDS011;62184;52.006;5.924;2023-04-15T01:32:41;10.23;;;7.60;;
73841;SDS011;62184;52.006;5.924;2023-04-15T01:35:07;11.63;;;8.20;;
73841;SDS011;62184;52.006;5.924;2023-04-15T01:37:34;10.83;;;8.03;;
73841;SDS011;62184;52.006;5.924;2023-04-15T01:40:02;11.70;;;8.45;;
73841;SDS011;62184;52.006;5.924;2023-04-15T01:42:30;11.05;;;8.15;;
73841;SDS011;62184;52.006;5.924;2023-04-15T01:44:59;12.05;;;8.13;;
73841;SDS011;62184;52.006;5.924;2023-04-15T01:47:25;10.57;;;7.80;;
73841;SDS011;62184;52.006;5.924;2023-04-15T01:49:52;12.27;;;8.35;;
73841;SDS011;62184;52.006;5.924;2023-04-15T01:52:18;11.48;;;8.25;;
73841;SDS011;62184;52.006;5.924;2023-04-15T01:54:45;10.60;;;7.68;;
73841;SDS011;62184;52.006;5.924;2023-04-15T01:57:11;10.60;;;8.00;;
73841;SDS011;62184;52.006;5.924;2023-04-15T01:59:38;12.18;;;8.25;;
73841;SDS011;62184;52.006;5.924;2023-04-15T02:02:07;11.85;;;8.00;;
73841;SDS011;62184;52.006;5.924;2023-04-15T02:04:33;10.77;;;7.97;;
73841;SDS011;62184;52.006;5.924;2023-04-15T02:07:00;11.60;;;7.95;;
73841;SDS011;62184;52.006;5.924;2023-04-15T02:09:26;11.77;;;7.82;;
73841;SDS011;62184;52.006;5.924;2023-04-15T02:11:52;11.45;;;7.78;;
73841;SDS011;62184;52.006;5.924;2023-04-15T02:14:19;10.65;;;7.80;;
73841;SDS011;62184;52.006;5.924;2023-04-15T02:16:45;10.80;;;7.95;;
73841;SDS011;62184;52.006;5.924;2023-04-15T02:19:14;11.45;;;7.93;;
73841;SDS011;62184;52.006;5.924;2023-04-15T02:21:40;11.07;;;8.07;;
73841;SDS011;62184;52.006;5.924;2023-04-15T02:24:07;11.17;;;7.77;;
73841;SDS011;62184;52.006;5.924;2023-04-15T02:26:33;12.00;;;7.73;;
73841;SDS011;62184;52.006;5.924;2023-04-15T02:29:00;12.23;;;8.00;;
73841;SDS011;62184;52.006;5.924;2023-04-15T02:31:26;11.87;;;8.57;;
73841;SDS011;62184;52.006;5.924;2023-04-15T02:33:52;10.60;;;8.00;;
73841;SDS011;62184;52.006;5.924;2023-04-15T02:36:22;11.77;;;8.63;;
73841;SDS011;62184;52.006;5.924;2023-04-15T02:38:48;12.18;;;8.93;;
73841;SDS011;62184;52.006;5.924;2023-04-15T02:41:14;12.55;;;8.82;;
73841;SDS011;62184;52.006;5.924;2023-04-15T02:43:41;12.45;;;8.68;;
73841;SDS011;62184;52.006;5.924;2023-04-15T02:46:07;11.88;;;8.80;;
73841;SDS011;62184;52.006;5.924;2023-04-15T02:48:33;11.98;;;8.95;;
73841;SDS011;62184;52.006;5.924;2023-04-15T02:51:13;13.10;;;9.15;;
73841;SDS011;62184;52.006;5.924;2023-04-15T02:53:43;12.10;;;9.35;;
73841;SDS011;62184;52.006;5.924;2023-04-15T02:56:10;13.40;;;9.32;;
73841;SDS011;62184;52.006;5.924;2023-04-15T02:58:37;12.73;;;8.87;;
73841;SDS011;62184;52.006;5.924;2023-04-15T03:01:04;13.85;;;9.60;;
73841;SDS011;62184;52.006;5.924;2023-04-15T03:03:31;13.80;;;9.43;;
73841;SDS011;62184;52.006;5.924;2023-04-15T03:05:57;15.07;;;9.40;;
73841;SDS011;62184;52.006;5.924;2023-04-15T03:08:24;13.32;;;9.18;;
73841;SDS011;62184;52.006;5.924;2023-04-15T03:10:53;12.75;;;8.90;;
73841;SDS011;62184;52.006;5.924;2023-04-15T03:13:19;14.40;;;9.55;;
73841;SDS011;62184;52.006;5.924;2023-04-15T03:15:46;13.48;;;9.57;;
73841;SDS011;62184;52.006;5.924;2023-04-15T03:18:12;13.83;;;10.10;;
73841;SDS011;62184;52.006;5.924;2023-04-15T03:20:39;15.05;;;10.20;;
73841;SDS011;62184;52.006;5.924;2023-04-15T03:23:05;13.23;;;9.63;;
73841;SDS011;62184;52.006;5.924;2023-04-15T03:25:32;16.40;;;10.20;;
73841;SDS011;62184;52.006;5.924;2023-04-15T03:28:01;13.32;;;10.00;;
73841;SDS011;62184;52.006;5.924;2023-04-15T03:30:28;14.63;;;9.80;;
73841;SDS011;62184;52.006;5.924;2023-04-15T03:32:54;15.10;;;10.32;;
73841;SDS011;62184;52.006;5.924;2023-04-15T03:35:21;15.25;;;10.25;;
73841;SDS011;62184;52.006;5.924;2023-04-15T03:37:47;15.10;;;10.40;;
73841;SDS011;62184;52.006;5.924;2023-04-15T03:40:13;14.75;;;10.30;;
73841;SDS011;62184;52.006;5.924;2023-04-15T03:42:40;15.73;;;10.52;;
73841;SDS011;62184;52.006;5.924;2023-04-15T03:45:09;16.25;;;10.32;;
73841;SDS011;62184;52.006;5.924;2023-04-15T03:47:36;15.85;;;10.02;;
73841;SDS011;62184;52.006;5.924;2023-04-15T03:50:03;14.80;;;10.75;;
73841;SDS011;62184;52.006;5.924;2023-04-15T03:52:31;15.10;;;10.68;;
73841;SDS011;62184;52.006;5.924;2023-04-15T03:54:57;15.23;;;10.75;;
73841;SDS011;62184;52.006;5.924;2023-04-15T03:57:23;16.15;;;10.75;;
73841;SDS011;62184;52.006;5.924;2023-04-15T03:59:50;16.35;;;10.73;;
73841;SDS011;62184;52.006;5.924;2023-04-15T04:02:19;15.45;;;10.50;;
73841;SDS011;62184;52.006;5.924;2023-04-15T04:04:45;16.35;;;10.65;;
73841;SDS011;62184;52.006;5.924;2023-04-15T04:07:14;14.75;;;10.15;;
73841;SDS011;62184;52.006;5.924;2023-04-15T04:09:41;16.40;;;11.00;;
73841;SDS011;62184;52.006;5.924;2023-04-15T04:12:07;14.80;;;10.13;;
73841;SDS011;62184;52.006;5.924;2023-04-15T04:14:33;16.02;;;11.07;;
73841;SDS011;62184;52.006;5.924;2023-04-15T04:17:00;15.85;;;11.10;;
73841;SDS011;62184;52.006;5.924;2023-04-15T04:19:29;17.27;;;11.52;;
73841;SDS011;62184;52.006;5.924;2023-04-15T04:21:55;15.67;;;11.20;;
73841;SDS011;62184;52.006;5.924;2023-04-15T04:24:22;16.67;;;11.20;;
73841;SDS011;62184;52.006;5.924;2023-04-15T04:26:49;16.83;;;11.38;;
73841;SDS011;62184;52.006;5.924;2023-04-15T04:29:15;17.35;;;11.05;;
73841;SDS011;62184;52.006;5.924;2023-04-15T04:31:41;16.38;;;11.23;;
73841;SDS011;62184;52.006;5.924;2023-04-15T04:34:08;16.23;;;11.40;;
73841;SDS011;62184;52.006;5.924;2023-04-15T04:36:37;16.90;;;11.95;;
73841;SDS011;62184;52.006;5.924;2023-04-15T04:39:03;15.15;;;10.82;;
73841;SDS011;62184;52.006;5.924;2023-04-15T04:41:30;17.05;;;11.13;;
73841;SDS011;62184;52.006;5.924;2023-04-15T04:43:56;18.05;;;11.90;;
73841;SDS011;62184;52.006;5.924;2023-04-15T04:46:22;17.70;;;11.60;;
73841;SDS011;62184;52.006;5.924;2023-04-15T04:48:49;14.98;;;10.98;;
73841;SDS011;62184;52.006;5.924;2023-04-15T04:51:15;17.13;;;11.25;;
73841;SDS011;62184;52.006;5.924;2023-04-15T04:53:45;16.77;;;11.68;;
73841;SDS011;62184;52.006;5.924;2023-04-15T04:56:12;17.58;;;11.85;;
73841;SDS011;62184;52.006;5.924;2023-04-15T04:58:38;18.33;;;12.10;;
73841;SDS011;62184;52.006;5.924;2023-04-15T05:01:04;18.60;;;12.25;;
73841;SDS011;62184;52.006;5.924;2023-04-15T05:03:31;16.10;;;11.30;;
73841;SDS011;62184;52.006;5.924;2023-04-15T05:05:57;19.43;;;12.30;;
73841;SDS011;62184;52.006;5.924;2023-04-15T05:08:24;17.80;;;11.23;;
73841;SDS011;62184;52.006;5.924;2023-04-15T05:10:53;18.30;;;11.73;;
73841;SDS011;62184;52.006;5.924;2023-04-15T05:13:19;18.65;;;11.40;;
73841;SDS011;62184;52.006;5.924;2023-04-15T05:15:45;18.60;;;11.73;;
73841;SDS011;62184;52.006;5.924;2023-04-15T05:18:12;18.25;;;12.00;;
73841;SDS011;62184;52.006;5.924;2023-04-15T05:20:38;17.77;;;11.80;;
73841;SDS011;62184;52.006;5.924;2023-04-15T05:23:05;16.92;;;11.60;;
73841;SDS011;62184;52.006;5.924;2023-04-15T05:25:31;17.83;;;11.52;;
73841;SDS011;62184;52.006;5.924;2023-04-15T05:28:00;18.67;;;11.80;;
73841;SDS011;62184;52.006;5.924;2023-04-15T05:30:27;16.73;;;11.20;;
73841;SDS011;62184;52.006;5.924;2023-04-15T05:32:53;17.40;;;11.63;;
73841;SDS011;62184;52.006;5.924;2023-04-15T05:35:20;17.10;;;11.93;;
73841;SDS011;62184;52.006;5.924;2023-04-15T05:37:46;18.63;;;12.23;;
73841;SDS011;62184;52.006;5.924;2023-04-15T05:40:13;17.42;;;11.75;;
73841;SDS011;62184;52.006;5.924;2023-04-15T05:42:39;18.13;;;11.95;;
73841;SDS011;62184;52.006;5.924;2023-04-15T05:45:09;18.42;;;12.40;;
73841;SDS011;62184;52.006;5.924;2023-04-15T05:47:36;20.30;;;12.57;;
73841;SDS011;62184;52.006;5.924;2023-04-15T05:50:03;16.95;;;11.85;;
73841;SDS011;62184;52.006;5.924;2023-04-15T05:52:31;17.50;;;11.60;;
73841;SDS011;62184;52.006;5.924;2023-04-15T05:54:57;18.05;;;11.85;;
73841;SDS011;62184;52.006;5.924;2023-04-15T05:57:23;17.85;;;11.30;;
73841;SDS011;62184;52.006;5.924;2023-04-15T05:59:50;18.35;;;12.05;;
73841;SDS011;62184;52.006;5.924;2023-04-15T06:02:19;17.00;;;11.45;;
73841;SDS011;62184;52.006;5.924;2023-04-15T06:04:45;15.70;;;10.75;;
73841;SDS011;62184;52.006;5.924;2023-04-15T06:07:12;16.00;;;10.90;;
73841;SDS011;62184;52.006;5.924;2023-04-15T06:09:38;16.50;;;10.93;;
73841;SDS011;62184;52.006;5.924;2023-04-15T06:12:05;17.63;;;11.33;;
73841;SDS011;62184;52.006;5.924;2023-04-15T06:14:31;17.57;;;11.07;;
73841;SDS011;62184;52.006;5.924;2023-04-15T06:16:57;17.17;;;11.27;;
73841;SDS011;62184;52.006;5.924;2023-04-15T06:19:26;16.13;;;11.07;;
73841;SDS011;62184;52.006;5.924;2023-04-15T06:21:53;17.05;;;11.40;;
73841;SDS011;62184;52.006;5.924;2023-04-15T06:24:19;15.43;;;10.50;;
73841;SDS011;62184;52.006;5.924;2023-04-15T06:26:46;16.35;;;11.32;;
73841;SDS011;62184;52.006;5.924;2023-04-15T06:29:12;14.88;;;10.18;;
73841;SDS011;62184;52.006;5.924;2023-04-15T06:31:39;16.05;;;10.70;;
73841;SDS011;62184;52.006;5.924;2023-04-15T06:34:05;15.63;;;10.45;;
73841;SDS011;62184;52.006;5.924;2023-04-15T06:36:34;14.98;;;10.52;;
73841;SDS011;62184;52.006;5.924;2023-04-15T06:39:00;16.15;;;10.55;;
73841;SDS011;62184;52.006;5.924;2023-04-15T06:41:27;16.02;;;10.98;;
73841;SDS011;62184;52.006;5.924;2023-04-15T06:43:53;15.20;;;10.45;;
73841;SDS011;62184;52.006;5.924;2023-04-15T06:46:20;15.55;;;10.85;;
73841;SDS011;62184;52.006;5.924;2023-04-15T06:48:46;16.05;;;10.88;;
73841;SDS011;62184;52.006;5.924;2023-04-15T06:51:12;15.75;;;10.90;;
73841;SDS011;62184;52.006;5.924;2023-04-15T06:53:42;17.15;;;11.52;;
73841;SDS011;62184;52.006;5.924;2023-04-15T06:56:08;17.10;;;11.83;;
73841;SDS011;62184;52.006;5.924;2023-04-15T06:58:35;16.60;;;11.32;;
73841;SDS011;62184;52.006;5.924;2023-04-15T07:01:02;17.98;;;11.90;;
73841;SDS011;62184;52.006;5.924;2023-04-15T07:03:28;17.25;;;11.73;;
73841;SDS011;62184;52.006;5.924;2023-04-15T07:05:55;16.52;;;11.70;;
73841;SDS011;62184;52.006;5.924;2023-04-15T07:08:22;17.58;;;11.73;;
73841;SDS011;62184;52.006;5.924;2023-04-15T07:10:51;16.48;;;12.20;;
73841;SDS011;62184;52.006;5.924;2023-04-15T07:13:17;16.73;;;12.00;;
73841;SDS011;62184;52.006;5.924;2023-04-15T07:15:43;16.17;;;11.65;;
73841;SDS011;62184;52.006;5.924;2023-04-15T07:18:10;17.17;;;11.73;;
73841;SDS011;62184;52.006;5.924;2023-04-15T07:20:36;17.48;;;11.65;;
73841;SDS011;62184;52.006;5.924;2023-04-15T07:23:03;16.70;;;11.90;;
73841;SDS011;62184;52.006;5.924;2023-04-15T07:25:30;16.80;;;11.40;;
73841;SDS011;62184;52.006;5.924;2023-04-15T07:27:59;16.70;;;11.32;;
73841;SDS011;62184;52.006;5.924;2023-04-15T07:30:25;16.03;;;11.40;;
73841;SDS011;62184;52.006;5.924;2023-04-15T07:32:52;15.87;;;10.93;;
73841;SDS011;62184;52.006;5.924;2023-04-15T07:35:19;15.00;;;10.65;;
73841;SDS011;62184;52.006;5.924;2023-04-15T07:37:46;17.02;;;11.27;;
73841;SDS011;62184;52.006;5.924;2023-04-15T07:40:13;16.92;;;11.05;;
73841;SDS011;62184;52.006;5.924;2023-04-15T07:42:39;16.33;;;10.77;;
73841;SDS011;62184;52.006;5.924;2023-04-15T07:45:09;16.90;;;10.97;;
73841;SDS011;62184;52.006;5.924;2023-04-15T07:47:36;14.32;;;9.77;;
73841;SDS011;62184;52.006;5.924;2023-04-15T07:50:03;14.15;;;10.23;;
73841;SDS011;62184;52.006;5.924;2023-04-15T07:52:30;14.23;;;10.33;;
73841;SDS011;62184;52.006;5.924;2023-04-15T07:54:57;13.33;;;9.40;;
73841;SDS011;62184;52.006;5.924;2023-04-15T07:57:23;14.77;;;9.67;;
73841;SDS011;62184;52.006;5.924;2023-04-15T07:59:49;14.27;;;9.07;;
73841;SDS011;62184;52.006;5.924;2023-04-15T08:02:18;12.70;;;8.77;;
73841;SDS011;62184;52.006;5.924;2023-04-15T08:04:45;12.63;;;8.30;;
73841;SDS011;62184;52.006;5.924;2023-04-15T08:07:11;12.15;;;9.32;;
73841;SDS011;62184;52.006;5.924;2023-04-15T08:09:37;12.00;;;8.73;;
73841;SDS011;62184;52.006;5.924;2023-04-15T08:12:04;12.73;;;8.40;;
73841;SDS011;62184;52.006;5.924;2023-04-15T08:14:31;11.70;;;8.70;;
73841;SDS011;62184;52.006;5.924;2023-04-15T08:16:57;11.40;;;7.57;;
73841;SDS011;62184;52.006;5.924;2023-04-15T08:19:26;10.98;;;7.63;;
73841;SDS011;62184;52.006;5.924;2023-04-15T08:21:52;9.05;;;6.47;;
73841;SDS011;62184;52.006;5.924;2023-04-15T08:24:19;9.13;;;6.20;;
73841;SDS011;62184;52.006;5.924;2023-04-15T08:26:45;10.10;;;6.70;;
73841;SDS011;62184;52.006;5.924;2023-04-15T08:29:12;9.73;;;6.23;;
73841;SDS011;62184;52.006;5.924;2023-04-15T08:31:39;9.57;;;6.60;;
73841;SDS011;62184;52.006;5.924;2023-04-15T08:34:06;8.95;;;6.53;;
73841;SDS011;62184;52.006;5.924;2023-04-15T08:36:35;9.98;;;6.68;;
73841;SDS011;62184;52.006;5.924;2023-04-15T08:39:01;9.00;;;6.60;;
73841;SDS011;62184;52.006;5.924;2023-04-15T08:41:28;9.13;;;6.38;;
73841;SDS011;62184;52.006;5.924;2023-04-15T08:44:04;9.80;;;6.50;;
73841;SDS011;62184;52.006;5.924;2023-04-15T08:46:31;9.75;;;6.65;;
73841;SDS011;62184;52.006;5.924;2023-04-15T08:48:58;8.80;;;6.37;;
73841;SDS011;62184;52.006;5.924;2023-04-15T08:51:25;8.77;;;6.30;;
73841;SDS011;62184;52.006;5.924;2023-04-15T08:53:54;9.70;;;6.10;;
73841;SDS011;62184;52.006;5.924;2023-04-15T08:56:22;8.95;;;6.28;;
73841;SDS011;62184;52.006;5.924;2023-04-15T08:58:50;8.65;;;6.15;;
73841;SDS011;62184;52.006;5.924;2023-04-15T09:01:17;8.93;;;6.22;;
73841;SDS011;62184;52.006;5.924;2023-04-15T09:03:47;8.37;;;6.27;;
73841;SDS011;62184;52.006;5.924;2023-04-15T09:06:14;8.20;;;5.90;;
73841;SDS011;62184;52.006;5.924;2023-04-15T09:08:41;8.90;;;6.32;;
73841;SDS011;62184;52.006;5.924;2023-04-15T09:11:11;8.88;;;6.40;;
73841;SDS011;62184;52.006;5.924;2023-04-15T09:13:38;8.80;;;6.10;;
73841;SDS011;62184;52.006;5.924;2023-04-15T09:16:05;8.70;;;5.80;;
73841;SDS011;62184;52.006;5.924;2023-04-15T09:18:32;8.77;;;6.45;;
73841;SDS011;62184;52.006;5.924;2023-04-15T09:21:04;8.90;;;6.32;;
73841;SDS011;62184;52.006;5.924;2023-04-15T09:23:32;9.20;;;6.75;;
73841;SDS011;62184;52.006;5.924;2023-04-15T09:25:58;9.50;;;6.73;;
73841;SDS011;62184;52.006;5.924;2023-04-15T09:28:28;9.30;;;6.10;;
73841;SDS011;62184;52.006;5.924;2023-04-15T09:30:55;9.23;;;6.40;;
73841;SDS011;62184;52.006;5.924;2023-04-15T09:33:23;9.30;;;6.30;;
73841;SDS011;62184;52.006;5.924;2023-04-15T09:35:57;8.18;;;5.97;;
73841;SDS011;62184;52.006;5.924;2023-04-15T09:38:25;8.60;;;6.07;;
73841;SDS011;62184;52.006;5.924;2023-04-15T09:40:52;9.35;;;5.93;;
73841;SDS011;62184;52.006;5.924;2023-04-15T09:43:19;8.70;;;6.10;;
73841;SDS011;62184;52.006;5.924;2023-04-15T09:45:49;8.13;;;5.70;;
73841;SDS011;62184;52.006;5.924;2023-04-15T09:48:19;8.80;;;5.80;;
73841;SDS011;62184;52.006;5.924;2023-04-15T09:50:47;8.38;;;6.15;;
73841;SDS011;62184;52.006;5.924;2023-04-15T09:53:14;8.70;;;6.10;;
73841;SDS011;62184;52.006;5.924;2023-04-15T09:55:43;7.82;;;5.70;;
73841;SDS011;62184;52.006;5.924;2023-04-15T09:58:16;7.80;;;5.70;;
73841;SDS011;62184;52.006;5.924;2023-04-15T10:00:44;7.87;;;5.40;;
73841;SDS011;62184;52.006;5.924;2023-04-15T10:03:17;8.07;;;5.80;;
73841;SDS011;62184;52.006;5.924;2023-04-15T10:05:46;8.95;;;6.18;;
73841;SDS011;62184;52.006;5.924;2023-04-15T10:08:16;9.07;;;6.07;;
73841;SDS011;62184;52.006;5.924;2023-04-15T10:10:45;8.82;;;6.22;;
73841;SDS011;62184;52.006;5.924;2023-04-15T10:13:13;8.70;;;6.20;;
73841;SDS011;62184;52.006;5.924;2023-04-15T10:15:44;7.68;;;5.20;;
73841;SDS011;62184;52.006;5.924;2023-04-15T10:18:21;7.93;;;5.57;;
73841;SDS011;62184;52.006;5.924;2023-04-15T10:20:51;7.43;;;5.77;;
73841;SDS011;62184;52.006;5.924;2023-04-15T10:23:18;7.55;;;5.70;;
73841;SDS011;62184;52.006;5.924;2023-04-15T10:25:45;7.45;;;5.45;;
73841;SDS011;62184;52.006;5.924;2023-04-15T10:28:14;7.53;;;5.22;;
73841;SDS011;62184;52.006;5.924;2023-04-15T10:30:41;7.93;;;5.78;;
73841;SDS011;62184;52.006;5.924;2023-04-15T10:33:11;7.05;;;5.30;;
73841;SDS011;62184;52.006;5.924;2023-04-15T10:35:39;11.13;;;5.95;;
73841;SDS011;62184;52.006;5.924;2023-04-15T10:41:15;9.32;;;5.88;;
73841;SDS011;62184;52.006;5.924;2023-04-15T10:43:44;7.13;;;5.32;;
73841;SDS011;62184;52.006;5.924;2023-04-15T10:46:15;7.13;;;5.40;;
73841;SDS011;62184;52.006;5.924;2023-04-15T10:48:51;7.63;;;5.40;;
73841;SDS011;62184;52.006;5.924;2023-04-15T10:51:28;7.15;;;5.60;;
73841;SDS011;62184;52.006;5.924;2023-04-15T10:53:56;7.23;;;5.50;;
73841;SDS011;62184;52.006;5.924;2023-04-15T10:56:24;8.10;;;5.63;;
73841;SDS011;62184;52.006;5.924;2023-04-15T10:58:50;7.15;;;5.88;;
73841;SDS011;62184;52.006;5.924;2023-04-15T11:01:18;9.18;;;6.10;;
73841;SDS011;62184;52.006;5.924;2023-04-15T11:03:45;8.30;;;5.97;;
73841;SDS011;62184;52.006;5.924;2023-04-15T11:06:14;7.70;;;6.15;;
73841;SDS011;62184;52.006;5.924;2023-04-15T11:08:53;7.68;;;5.90;;
73841;SDS011;62184;52.006;5.924;2023-04-15T11:11:22;7.20;;;6.25;;
73841;SDS011;62184;52.006;5.924;2023-04-15T11:13:49;7.85;;;5.90;;
73841;SDS011;62184;52.006;5.924;2023-04-15T11:16:16;7.50;;;5.93;;
73841;SDS011;62184;52.006;5.924;2023-04-15T11:18:52;7.20;;;5.38;;
73841;SDS011;62184;52.006;5.924;2023-04-15T11:21:23;6.90;;;5.35;;
73841;SDS011;62184;52.006;5.924;2023-04-15T11:23:50;6.57;;;5.17;;
73841;SDS011;62184;52.006;5.924;2023-04-15T11:26:16;6.50;;;5.00;;
73841;SDS011;62184;52.006;5.924;2023-04-15T11:28:44;6.55;;;5.38;;
73841;SDS011;62184;52.006;5.924;2023-04-15T11:31:11;6.28;;;5.20;;
73841;SDS011;62184;52.006;5.924;2023-04-15T11:33:45;6.57;;;5.40;;
73841;SDS011;62184;52.006;5.924;2023-04-15T11:36:22;6.55;;;5.60;;
73841;SDS011;62184;52.006;5.924;2023-04-15T11:38:49;7.72;;;5.25;;
73841;SDS011;62184;52.006;5.924;2023-04-15T11:41:19;5.93;;;4.85;;
73841;SDS011;62184;52.006;5.924;2023-04-15T11:43:45;5.70;;;4.57;;
73841;SDS011;62184;52.006;5.924;2023-04-15T11:46:12;5.93;;;4.90;;
73841;SDS011;62184;52.006;5.924;2023-04-15T11:48:41;5.63;;;4.90;;
73841;SDS011;62184;52.006;5.924;2023-04-15T11:51:09;6.20;;;5.15;;
73841;SDS011;62184;52.006;5.924;2023-04-15T11:53:41;7.03;;;5.03;;
73841;SDS011;62184;52.006;5.924;2023-04-15T11:56:09;5.68;;;4.80;;
73841;SDS011;62184;52.006;5.924;2023-04-15T11:58:43;6.00;;;4.63;;
73841;SDS011;62184;52.006;5.924;2023-04-15T12:01:10;6.05;;;4.82;;
73841;SDS011;62184;52.006;5.924;2023-04-15T12:03:37;5.38;;;4.40;;
73841;SDS011;62184;52.006;5.924;2023-04-15T12:06:10;6.15;;;4.60;;
73841;SDS011;62184;52.006;5.924;2023-04-15T12:11:33;5.87;;;4.40;;
73841;SDS011;62184;52.006;5.924;2023-04-15T12:14:04;5.55;;;4.80;;
73841;SDS011;62184;52.006;5.924;2023-04-15T12:16:35;5.87;;;5.10;;
73841;SDS011;62184;52.006;5.924;2023-04-15T12:19:06;5.88;;;4.90;;
73841;SDS011;62184;52.006;5.924;2023-04-15T12:21:36;5.40;;;4.78;;
73841;SDS011;62184;52.006;5.924;2023-04-15T12:24:08;6.07;;;4.15;;
73841;SDS011;62184;52.006;5.924;2023-04-15T12:26:40;5.53;;;4.47;;
73841;SDS011;62184;52.006;5.924;2023-04-15T12:29:10;5.50;;;3.72;;
73841;SDS011;62184;52.006;5.924;2023-04-15T12:31:49;6.13;;;4.03;;
73841;SDS011;62184;52.006;5.924;2023-04-15T12:34:24;5.50;;;4.57;;
73841;SDS011;62184;52.006;5.924;2023-04-15T12:36:53;5.80;;;4.45;;
73841;SDS011;62184;52.006;5.924;2023-04-15T12:39:24;5.75;;;4.40;;
73841;SDS011;62184;52.006;5.924;2023-04-15T12:41:53;4.70;;;4.10;;
73841;SDS011;62184;52.006;5.924;2023-04-15T12:44:21;5.78;;;4.57;;
73841;SDS011;62184;52.006;5.924;2023-04-15T12:46:49;6.18;;;4.50;;
73841;SDS011;62184;52.006;5.924;2023-04-15T12:49:16;6.17;;;4.60;;
73841;SDS011;62184;52.006;5.924;2023-04-15T12:51:43;5.43;;;4.57;;
73841;SDS011;62184;52.006;5.924;2023-04-15T12:54:09;6.07;;;4.47;;
73841;SDS011;62184;52.006;5.924;2023-04-15T12:56:38;5.85;;;4.07;;
73841;SDS011;62184;52.006;5.924;2023-04-15T12:59:05;6.38;;;4.30;;
73841;SDS011;62184;52.006;5.924;2023-04-15T13:01:32;5.55;;;4.32;;
73841;SDS011;62184;52.006;5.924;2023-04-15T13:03:58;6.15;;;4.20;;
73841;SDS011;62184;52.006;5.924;2023-04-15T13:06:25;5.65;;;4.03;;
73841;SDS011;62184;52.006;5.924;2023-04-15T13:08:51;5.30;;;3.75;;
73841;SDS011;62184;52.006;5.924;2023-04-15T13:11:18;5.20;;;3.53;;
73841;SDS011;62184;52.006;5.924;2023-04-15T13:13:47;6.40;;;3.75;;
73841;SDS011;62184;52.006;5.924;2023-04-15T13:16:13;5.80;;;3.95;;
73841;SDS011;62184;52.006;5.924;2023-04-15T13:18:39;6.05;;;3.97;;
73841;SDS011;62184;52.006;5.924;2023-04-15T13:21:06;5.78;;;3.90;;
73841;SDS011;62184;52.006;5.924;2023-04-15T13:23:33;5.20;;;3.70;;
73841;SDS011;62184;52.006;5.924;2023-04-15T13:25:59;4.80;;;3.50;;
73841;SDS011;62184;52.006;5.924;2023-04-15T13:28:25;4.67;;;3.73;;
73841;SDS011;62184;52.006;5.924;2023-04-15T13:30:54;4.67;;;3.90;;
73841;SDS011;62184;52.006;5.924;2023-04-15T13:33:21;5.15;;;3.50;;
73841;SDS011;62184;52.006;5.924;2023-04-15T13:35:47;6.05;;;3.60;;
73841;SDS011;62184;52.006;5.924;2023-04-15T13:38:14;5.57;;;3.60;;
73841;SDS011;62184;52.006;5.924;2023-04-15T13:40:40;4.45;;;3.63;;
73841;SDS011;62184;52.006;5.924;2023-04-15T13:43:06;5.68;;;3.72;;
73841;SDS011;62184;52.006;5.924;2023-04-15T13:45:33;4.78;;;3.67;;
73841;SDS011;62184;52.006;5.924;2023-04-15T13:48:02;5.35;;;3.42;;
73841;SDS011;62184;52.006;5.924;2023-04-15T13:50:29;4.90;;;3.40;;
73841;SDS011;62184;52.006;5.924;2023-04-15T13:52:55;4.70;;;3.20;;
73841;SDS011;62184;52.006;5.924;2023-04-15T13:55:22;5.40;;;3.50;;
73841;SDS011;62184;52.006;5.924;2023-04-15T13:57:48;5.17;;;3.30;;
73841;SDS011;62184;52.006;5.924;2023-04-15T14:00:15;5.03;;;3.50;;
73841;SDS011;62184;52.006;5.924;2023-04-15T14:02:42;5.03;;;3.37;;
73841;SDS011;62184;52.006;5.924;2023-04-15T14:05:11;4.45;;;3.10;;
73841;SDS011;62184;52.006;5.924;2023-04-15T14:07:38;4.70;;;3.03;;
73841;SDS011;62184;52.006;5.924;2023-04-15T14:10:05;5.60;;;3.50;;
73841;SDS011;62184;52.006;5.924;2023-04-15T14:12:32;5.05;;;3.30;;
73841;SDS011;62184;52.006;5.924;2023-04-15T14:14:59;5.32;;;3.17;;
73841;SDS011;62184;52.006;5.924;2023-04-15T14:17:25;4.97;;;3.38;;
73841;SDS011;62184;52.006;5.924;2023-04-15T14:19:52;4.90;;;3.33;;
73841;SDS011;62184;52.006;5.924;2023-04-15T14:22:21;6.22;;;3.25;;
73841;SDS011;62184;52.006;5.924;2023-04-15T14:24:48;5.90;;;3.60;;
73841;SDS011;62184;52.006;5.924;2023-04-15T14:27:14;5.10;;;3.23;;
73841;SDS011;62184;52.006;5.924;2023-04-15T14:29:41;4.65;;;3.10;;
73841;SDS011;62184;52.006;5.924;2023-04-15T14:32:07;5.78;;;3.20;;
73841;SDS011;62184;52.006;5.924;2023-04-15T14:34:33;5.43;;;3.25;;
73841;SDS011;62184;52.006;5.924;2023-04-15T14:37:00;4.78;;;3.05;;
73841;SDS011;62184;52.006;5.924;2023-04-15T14:39:30;6.15;;;3.10;;
73841;SDS011;62184;52.006;5.924;2023-04-15T14:41:57;6.32;;;3.30;;
73841;SDS011;62184;52.006;5.924;2023-04-15T14:44:23;5.03;;;3.17;;